Hackett, Minnesota
Current Conditions -  °F | °C
As of 8:53 AM on Monday 22 Dec 2014 (Local Time) from KBDE Reporting Station
Overcast Overcast  
Wind Chill: 25°   Ceiling: 500
Heat Index: 33°   Visibility: 8mi
Dew Point: 32°   Wind: 9mph
Humidity: 96%   Direction: 110°ESE
Pressure: 29.62"   Gusts: NA
Location:  48.5595°N, 94.661°W
Report Text: KBDE 221453Z AUTO 11008KT 8SM OVC005 01/00 A2962 RMK AO2 SLP043 T00060000 50003 TSNO
Loading
Personal Weather Stations






























Interactive Weather Map New forecast layout! Learn more

10-Day Weather Forecast

Advertisements
Track Severe Weather on mobile